sensor_id;sensor_type;location;lat;lon;timestamp;P1;durP1;ratioP1;P2;durP2;ratioP2
28774;SDS011;15926;51.348;6.596;2023-05-07T00:00:03;5.25;;;4.85;;
28774;SDS011;15926;51.348;6.596;2023-05-07T00:02:33;6.05;;;5.50;;
28774;SDS011;15926;51.348;6.596;2023-05-07T00:04:58;6.82;;;6.10;;
28774;SDS011;15926;51.348;6.596;2023-05-07T00:07:24;6.35;;;5.75;;
28774;SDS011;15926;51.348;6.596;2023-05-07T00:09:50;7.38;;;5.90;;
28774;SDS011;15926;51.348;6.596;2023-05-07T00:12:16;6.00;;;5.25;;
28774;SDS011;15926;51.348;6.596;2023-05-07T00:14:42;6.07;;;5.65;;
28774;SDS011;15926;51.348;6.596;2023-05-07T00:17:08;5.70;;;5.15;;
28774;SDS011;15926;51.348;6.596;2023-05-07T00:19:34;6.60;;;5.15;;
28774;SDS011;15926;51.348;6.596;2023-05-07T00:22:00;6.78;;;5.70;;
28774;SDS011;15926;51.348;6.596;2023-05-07T00:24:26;6.90;;;5.35;;
28774;SDS011;15926;51.348;6.596;2023-05-07T00:26:52;5.97;;;5.40;;
28774;SDS011;15926;51.348;6.596;2023-05-07T00:29:18;7.38;;;5.35;;
28774;SDS011;15926;51.348;6.596;2023-05-07T00:31:45;6.63;;;5.53;;
28774;SDS011;15926;51.348;6.596;2023-05-07T00:34:11;5.95;;;5.40;;
28774;SDS011;15926;51.348;6.596;2023-05-07T00:36:36;5.72;;;5.18;;
28774;SDS011;15926;51.348;6.596;2023-05-07T00:39:02;5.00;;;4.60;;
28774;SDS011;15926;51.348;6.596;2023-05-07T00:41:29;5.70;;;5.18;;
28774;SDS011;15926;51.348;6.596;2023-05-07T00:43:55;5.55;;;5.15;;
28774;SDS011;15926;51.348;6.596;2023-05-07T00:46:22;6.05;;;5.40;;
28774;SDS011;15926;51.348;6.596;2023-05-07T00:48:49;7.88;;;5.80;;
28774;SDS011;15926;51.348;6.596;2023-05-07T00:51:15;5.93;;;5.30;;
28774;SDS011;15926;51.348;6.596;2023-05-07T00:53:41;5.57;;;5.18;;
28774;SDS011;15926;51.348;6.596;2023-05-07T00:56:07;5.55;;;5.05;;
28774;SDS011;15926;51.348;6.596;2023-05-07T00:58:34;5.72;;;5.32;;
28774;SDS011;15926;51.348;6.596;2023-05-07T01:01:00;6.72;;;6.00;;
28774;SDS011;15926;51.348;6.596;2023-05-07T01:03:26;8.52;;;5.47;;
28774;SDS011;15926;51.348;6.596;2023-05-07T01:05:52;6.10;;;5.60;;
28774;SDS011;15926;51.348;6.596;2023-05-07T01:08:19;5.93;;;5.47;;
28774;SDS011;15926;51.348;6.596;2023-05-07T01:10:45;6.93;;;4.70;;
28774;SDS011;15926;51.348;6.596;2023-05-07T01:13:12;5.68;;;5.18;;
28774;SDS011;15926;51.348;6.596;2023-05-07T01:15:38;6.13;;;5.22;;
28774;SDS011;15926;51.348;6.596;2023-05-07T01:18:06;8.63;;;5.22;;
28774;SDS011;15926;51.348;6.596;2023-05-07T01:20:32;6.05;;;5.47;;
28774;SDS011;15926;51.348;6.596;2023-05-07T01:22:58;8.32;;;5.10;;
28774;SDS011;15926;51.348;6.596;2023-05-07T01:25:24;9.93;;;4.70;;
28774;SDS011;15926;51.348;6.596;2023-05-07T01:27:50;5.78;;;5.28;;
28774;SDS011;15926;51.348;6.596;2023-05-07T01:30:16;5.47;;;5.07;;
28774;SDS011;15926;51.348;6.596;2023-05-07T01:32:48;5.40;;;4.95;;
28774;SDS011;15926;51.348;6.596;2023-05-07T01:35:21;5.53;;;4.93;;
28774;SDS011;15926;51.348;6.596;2023-05-07T01:37:48;6.05;;;5.35;;
28774;SDS011;15926;51.348;6.596;2023-05-07T01:40:15;5.28;;;4.88;;
28774;SDS011;15926;51.348;6.596;2023-05-07T01:42:41;5.88;;;4.45;;
28774;SDS011;15926;51.348;6.596;2023-05-07T01:45:08;7.40;;;4.90;;
28774;SDS011;15926;51.348;6.596;2023-05-07T01:47:35;4.97;;;4.60;;
28774;SDS011;15926;51.348;6.596;2023-05-07T01:50:01;5.80;;;5.20;;
28774;SDS011;15926;51.348;6.596;2023-05-07T01:52:27;9.07;;;4.75;;
28774;SDS011;15926;51.348;6.596;2023-05-07T01:54:54;4.65;;;4.35;;
28774;SDS011;15926;51.348;6.596;2023-05-07T01:57:20;5.20;;;4.70;;
28774;SDS011;15926;51.348;6.596;2023-05-07T01:59:46;5.78;;;5.28;;
28774;SDS011;15926;51.348;6.596;2023-05-07T02:02:11;4.95;;;4.40;;
28774;SDS011;15926;51.348;6.596;2023-05-07T02:04:37;5.22;;;4.47;;
28774;SDS011;15926;51.348;6.596;2023-05-07T02:07:03;5.68;;;5.13;;
28774;SDS011;15926;51.348;6.596;2023-05-07T02:09:29;5.95;;;5.35;;
28774;SDS011;15926;51.348;6.596;2023-05-07T02:11:55;5.18;;;4.78;;
28774;SDS011;15926;51.348;6.596;2023-05-07T02:14:21;5.55;;;5.10;;
28774;SDS011;15926;51.348;6.596;2023-05-07T02:16:47;5.22;;;4.72;;
28774;SDS011;15926;51.348;6.596;2023-05-07T02:19:13;5.72;;;5.22;;
28774;SDS011;15926;51.348;6.596;2023-05-07T02:21:39;5.28;;;4.88;;
28774;SDS011;15926;51.348;6.596;2023-05-07T02:24:05;6.20;;;5.47;;
28774;SDS011;15926;51.348;6.596;2023-05-07T02:26:31;6.53;;;5.15;;
28774;SDS011;15926;51.348;6.596;2023-05-07T02:28:57;6.07;;;5.47;;
28774;SDS011;15926;51.348;6.596;2023-05-07T02:31:23;6.40;;;5.80;;
28774;SDS011;15926;51.348;6.596;2023-05-07T02:33:49;6.47;;;5.60;;
28774;SDS011;15926;51.348;6.596;2023-05-07T02:36:15;5.43;;;4.82;;
28774;SDS011;15926;51.348;6.596;2023-05-07T02:38:41;5.50;;;4.88;;
28774;SDS011;15926;51.348;6.596;2023-05-07T02:41:07;8.13;;;5.32;;
28774;SDS011;15926;51.348;6.596;2023-05-07T02:43:33;7.93;;;5.60;;
28774;SDS011;15926;51.348;6.596;2023-05-07T02:46:00;5.80;;;5.30;;
28774;SDS011;15926;51.348;6.596;2023-05-07T02:48:26;5.47;;;5.07;;
28774;SDS011;15926;51.348;6.596;2023-05-07T02:50:52;5.53;;;5.13;;
28774;SDS011;15926;51.348;6.596;2023-05-07T02:53:18;4.80;;;4.40;;
28774;SDS011;15926;51.348;6.596;2023-05-07T02:55:44;6.90;;;5.35;;
28774;SDS011;15926;51.348;6.596;2023-05-07T02:58:10;5.22;;;4.78;;
28774;SDS011;15926;51.348;6.596;2023-05-07T03:00:36;5.50;;;4.90;;
28774;SDS011;15926;51.348;6.596;2023-05-07T03:03:02;4.80;;;4.40;;
28774;SDS011;15926;51.348;6.596;2023-05-07T03:05:28;4.38;;;4.07;;
28774;SDS011;15926;51.348;6.596;2023-05-07T03:07:54;5.30;;;4.80;;
28774;SDS011;15926;51.348;6.596;2023-05-07T03:10:20;6.30;;;4.78;;
28774;SDS011;15926;51.348;6.596;2023-05-07T03:12:46;6.15;;;5.03;;
28774;SDS011;15926;51.348;6.596;2023-05-07T03:15:12;9.07;;;5.25;;
28774;SDS011;15926;51.348;6.596;2023-05-07T03:17:38;5.53;;;4.90;;
28774;SDS011;15926;51.348;6.596;2023-05-07T03:20:04;5.35;;;4.90;;
28774;SDS011;15926;51.348;6.596;2023-05-07T03:22:31;5.63;;;4.72;;
28774;SDS011;15926;51.348;6.596;2023-05-07T03:24:57;5.30;;;4.80;;
28774;SDS011;15926;51.348;6.596;2023-05-07T03:27:23;5.75;;;5.25;;
28774;SDS011;15926;51.348;6.596;2023-05-07T03:29:49;5.32;;;4.82;;
28774;SDS011;15926;51.348;6.596;2023-05-07T03:32:15;5.40;;;4.90;;
28774;SDS011;15926;51.348;6.596;2023-05-07T03:34:41;6.57;;;5.47;;
28774;SDS011;15926;51.348;6.596;2023-05-07T03:37:07;5.30;;;4.80;;
28774;SDS011;15926;51.348;6.596;2023-05-07T03:39:33;5.50;;;5.00;;
28774;SDS011;15926;51.348;6.596;2023-05-07T03:41:59;5.38;;;4.97;;
28774;SDS011;15926;51.348;6.596;2023-05-07T03:44:25;5.63;;;5.13;;
28774;SDS011;15926;51.348;6.596;2023-05-07T03:46:51;5.25;;;4.75;;
28774;SDS011;15926;51.348;6.596;2023-05-07T03:49:17;5.45;;;5.00;;
28774;SDS011;15926;51.348;6.596;2023-05-07T03:51:43;6.03;;;5.22;;
28774;SDS011;15926;51.348;6.596;2023-05-07T03:54:10;5.30;;;4.97;;
28774;SDS011;15926;51.348;6.596;2023-05-07T03:56:36;6.78;;;5.85;;
28774;SDS011;15926;51.348;6.596;2023-05-07T03:59:02;6.03;;;5.47;;
28774;SDS011;15926;51.348;6.596;2023-05-07T04:01:28;5.70;;;5.20;;
28774;SDS011;15926;51.348;6.596;2023-05-07T04:03:54;7.35;;;5.82;;
28774;SDS011;15926;51.348;6.596;2023-05-07T04:06:20;8.60;;;5.50;;
28774;SDS011;15926;51.348;6.596;2023-05-07T04:08:46;7.07;;;6.38;;
28774;SDS011;15926;51.348;6.596;2023-05-07T04:11:12;8.07;;;5.55;;
28774;SDS011;15926;51.348;6.596;2023-05-07T04:13:38;5.43;;;5.03;;
28774;SDS011;15926;51.348;6.596;2023-05-07T04:16:04;7.28;;;5.90;;
28774;SDS011;15926;51.348;6.596;2023-05-07T04:18:30;8.38;;;6.10;;
28774;SDS011;15926;51.348;6.596;2023-05-07T04:20:56;6.47;;;5.88;;
28774;SDS011;15926;51.348;6.596;2023-05-07T04:23:22;6.20;;;5.40;;
28774;SDS011;15926;51.348;6.596;2023-05-07T04:25:48;8.57;;;5.57;;
28774;SDS011;15926;51.348;6.596;2023-05-07T04:28:16;7.03;;;6.28;;
28774;SDS011;15926;51.348;6.596;2023-05-07T04:30:41;5.82;;;5.32;;
28774;SDS011;15926;51.348;6.596;2023-05-07T04:33:07;6.28;;;5.60;;
28774;SDS011;15926;51.348;6.596;2023-05-07T04:35:34;6.50;;;5.90;;
28774;SDS011;15926;51.348;6.596;2023-05-07T04:38:00;6.28;;;5.68;;
28774;SDS011;15926;51.348;6.596;2023-05-07T04:40:26;14.88;;;7.82;;
28774;SDS011;15926;51.348;6.596;2023-05-07T04:42:52;7.20;;;6.07;;
28774;SDS011;15926;51.348;6.596;2023-05-07T04:45:18;8.05;;;6.00;;
28774;SDS011;15926;51.348;6.596;2023-05-07T04:47:45;9.57;;;6.15;;
28774;SDS011;15926;51.348;6.596;2023-05-07T04:50:10;7.47;;;6.00;;
28774;SDS011;15926;51.348;6.596;2023-05-07T04:52:37;6.72;;;6.10;;
28774;SDS011;15926;51.348;6.596;2023-05-07T04:55:03;8.18;;;5.80;;
28774;SDS011;15926;51.348;6.596;2023-05-07T04:57:29;6.55;;;5.95;;
28774;SDS011;15926;51.348;6.596;2023-05-07T04:59:55;6.85;;;5.90;;
28774;SDS011;15926;51.348;6.596;2023-05-07T05:02:21;8.20;;;6.28;;
28774;SDS011;15926;51.348;6.596;2023-05-07T05:04:47;6.47;;;5.72;;
28774;SDS011;15926;51.348;6.596;2023-05-07T05:07:13;9.55;;;6.70;;
28774;SDS011;15926;51.348;6.596;2023-05-07T05:09:39;7.03;;;6.35;;
28774;SDS011;15926;51.348;6.596;2023-05-07T05:12:05;8.88;;;6.30;;
28774;SDS011;15926;51.348;6.596;2023-05-07T05:14:32;7.72;;;5.88;;
28774;SDS011;15926;51.348;6.596;2023-05-07T05:16:58;6.93;;;6.03;;
28774;SDS011;15926;51.348;6.596;2023-05-07T05:19:24;7.15;;;5.72;;
28774;SDS011;15926;51.348;6.596;2023-05-07T05:21:50;6.85;;;6.10;;
28774;SDS011;15926;51.348;6.596;2023-05-07T05:24:16;6.43;;;5.93;;
28774;SDS011;15926;51.348;6.596;2023-05-07T05:26:42;7.28;;;6.03;;
28774;SDS011;15926;51.348;6.596;2023-05-07T05:29:08;5.43;;;5.03;;
28774;SDS011;15926;51.348;6.596;2023-05-07T05:31:35;6.07;;;5.32;;
28774;SDS011;15926;51.348;6.596;2023-05-07T05:34:01;5.20;;;4.70;;
28774;SDS011;15926;51.348;6.596;2023-05-07T05:36:28;5.18;;;4.78;;
28774;SDS011;15926;51.348;6.596;2023-05-07T05:38:54;5.75;;;5.25;;
28774;SDS011;15926;51.348;6.596;2023-05-07T05:41:20;5.88;;;5.28;;
28774;SDS011;15926;51.348;6.596;2023-05-07T05:43:46;5.38;;;4.75;;
28774;SDS011;15926;51.348;6.596;2023-05-07T05:46:12;4.97;;;4.13;;
28774;SDS011;15926;51.348;6.596;2023-05-07T05:48:38;7.15;;;4.85;;
28774;SDS011;15926;51.348;6.596;2023-05-07T05:51:04;5.32;;;4.50;;
28774;SDS011;15926;51.348;6.596;2023-05-07T05:53:30;5.72;;;4.10;;
28774;SDS011;15926;51.348;6.596;2023-05-07T05:55:56;6.68;;;4.35;;
28774;SDS011;15926;51.348;6.596;2023-05-07T05:58:22;4.32;;;3.50;;
28774;SDS011;15926;51.348;6.596;2023-05-07T06:00:48;5.00;;;4.00;;
28774;SDS011;15926;51.348;6.596;2023-05-07T06:03:17;4.18;;;3.60;;
28774;SDS011;15926;51.348;6.596;2023-05-07T06:05:43;3.67;;;3.40;;
28774;SDS011;15926;51.348;6.596;2023-05-07T06:08:09;6.20;;;3.30;;
28774;SDS011;15926;51.348;6.596;2023-05-07T06:10:35;3.67;;;3.35;;
28774;SDS011;15926;51.348;6.596;2023-05-07T06:13:02;5.05;;;3.67;;
28774;SDS011;15926;51.348;6.596;2023-05-07T06:15:28;3.47;;;2.88;;
28774;SDS011;15926;51.348;6.596;2023-05-07T06:17:53;4.18;;;3.08;;
28774;SDS011;15926;51.348;6.596;2023-05-07T06:20:22;3.00;;;2.70;;
28774;SDS011;15926;51.348;6.596;2023-05-07T06:22:48;3.90;;;3.00;;
28774;SDS011;15926;51.348;6.596;2023-05-07T06:25:14;3.25;;;2.80;;
28774;SDS011;15926;51.348;6.596;2023-05-07T06:27:40;3.30;;;2.53;;
28774;SDS011;15926;51.348;6.596;2023-05-07T06:30:06;9.50;;;3.50;;
28774;SDS011;15926;51.348;6.596;2023-05-07T06:32:32;4.10;;;2.75;;
28774;SDS011;15926;51.348;6.596;2023-05-07T06:34:58;2.50;;;2.30;;
28774;SDS011;15926;51.348;6.596;2023-05-07T06:37:25;3.70;;;2.33;;
28774;SDS011;15926;51.348;6.596;2023-05-07T06:39:51;2.72;;;2.05;;
28774;SDS011;15926;51.348;6.596;2023-05-07T06:42:17;2.30;;;2.10;;
28774;SDS011;15926;51.348;6.596;2023-05-07T06:44:43;2.97;;;2.15;;
28774;SDS011;15926;51.348;6.596;2023-05-07T06:47:08;3.20;;;1.95;;
28774;SDS011;15926;51.348;6.596;2023-05-07T06:49:34;4.03;;;2.25;;
28774;SDS011;15926;51.348;6.596;2023-05-07T06:52:00;2.00;;;1.90;;
28774;SDS011;15926;51.348;6.596;2023-05-07T06:54:26;3.15;;;2.10;;
28774;SDS011;15926;51.348;6.596;2023-05-07T06:56:52;2.72;;;2.25;;
28774;SDS011;15926;51.348;6.596;2023-05-07T06:59:18;3.40;;;2.55;;
28774;SDS011;15926;51.348;6.596;2023-05-07T07:01:44;2.72;;;2.53;;
28774;SDS011;15926;51.348;6.596;2023-05-07T07:04:10;4.65;;;2.50;;
28774;SDS011;15926;51.348;6.596;2023-05-07T07:06:36;2.30;;;2.10;;
28774;SDS011;15926;51.348;6.596;2023-05-07T07:09:02;3.38;;;2.38;;
28774;SDS011;15926;51.348;6.596;2023-05-07T07:11:28;1.83;;;1.70;;
28774;SDS011;15926;51.348;6.596;2023-05-07T07:13:55;3.00;;;1.98;;
28774;SDS011;15926;51.348;6.596;2023-05-07T07:16:21;2.13;;;1.95;;
28774;SDS011;15926;51.348;6.596;2023-05-07T07:18:47;3.70;;;2.42;;
28774;SDS011;15926;51.348;6.596;2023-05-07T07:21:13;3.35;;;2.10;;
28774;SDS011;15926;51.348;6.596;2023-05-07T07:23:39;3.22;;;2.47;;
28774;SDS011;15926;51.348;6.596;2023-05-07T07:26:05;2.42;;;2.22;;
28774;SDS011;15926;51.348;6.596;2023-05-07T07:28:31;2.90;;;2.58;;
28774;SDS011;15926;51.348;6.596;2023-05-07T07:30:57;2.42;;;2.10;;
28774;SDS011;15926;51.348;6.596;2023-05-07T07:33:23;3.10;;;2.05;;
28774;SDS011;15926;51.348;6.596;2023-05-07T07:35:49;2.42;;;2.05;;
28774;SDS011;15926;51.348;6.596;2023-05-07T07:38:15;2.33;;;2.13;;
28774;SDS011;15926;51.348;6.596;2023-05-07T07:40:41;3.60;;;1.80;;
28774;SDS011;15926;51.348;6.596;2023-05-07T07:43:08;2.42;;;2.05;;
28774;SDS011;15926;51.348;6.596;2023-05-07T07:45:34;2.25;;;2.05;;
28774;SDS011;15926;51.348;6.596;2023-05-07T07:48:01;2.08;;;1.88;;
28774;SDS011;15926;51.348;6.596;2023-05-07T07:50:27;3.67;;;2.30;;
28774;SDS011;15926;51.348;6.596;2023-05-07T07:52:53;4.63;;;2.22;;
28774;SDS011;15926;51.348;6.596;2023-05-07T07:55:19;2.05;;;1.85;;
28774;SDS011;15926;51.348;6.596;2023-05-07T07:57:48;3.97;;;1.70;;
28774;SDS011;15926;51.348;6.596;2023-05-07T08:00:16;2.73;;;1.87;;
28774;SDS011;15926;51.348;6.596;2023-05-07T08:02:42;2.55;;;1.67;;
28774;SDS011;15926;51.348;6.596;2023-05-07T08:05:08;2.28;;;1.50;;
28774;SDS011;15926;51.348;6.596;2023-05-07T08:07:34;1.70;;;1.60;;
28774;SDS011;15926;51.348;6.596;2023-05-07T08:10:00;1.73;;;1.63;;
28774;SDS011;15926;51.348;6.596;2023-05-07T08:12:27;2.00;;;1.45;;
28774;SDS011;15926;51.348;6.596;2023-05-07T08:14:53;2.90;;;1.48;;
28774;SDS011;15926;51.348;6.596;2023-05-07T08:17:19;3.17;;;1.75;;
28774;SDS011;15926;51.348;6.596;2023-05-07T08:19:47;1.45;;;1.35;;
28774;SDS011;15926;51.348;6.596;2023-05-07T08:22:13;4.50;;;1.80;;
28774;SDS011;15926;51.348;6.596;2023-05-07T08:24:39;1.92;;;1.77;;
28774;SDS011;15926;51.348;6.596;2023-05-07T08:27:05;1.85;;;1.73;;
28774;SDS011;15926;51.348;6.596;2023-05-07T08:29:31;1.88;;;1.70;;
28774;SDS011;15926;51.348;6.596;2023-05-07T08:31:57;2.88;;;1.33;;
28774;SDS011;15926;51.348;6.596;2023-05-07T08:34:23;1.48;;;1.38;;
28774;SDS011;15926;51.348;6.596;2023-05-07T08:36:49;2.30;;;2.00;;
28774;SDS011;15926;51.348;6.596;2023-05-07T08:39:15;2.15;;;1.73;;
28774;SDS011;15926;51.348;6.596;2023-05-07T08:41:44;5.40;;;2.70;;
28774;SDS011;15926;51.348;6.596;2023-05-07T08:44:12;2.63;;;1.85;;
28774;SDS011;15926;51.348;6.596;2023-05-07T08:46:39;1.63;;;1.52;;
28774;SDS011;15926;51.348;6.596;2023-05-07T08:49:05;2.30;;;2.10;;
28774;SDS011;15926;51.348;6.596;2023-05-07T08:51:31;1.90;;;1.80;;
28774;SDS011;15926;51.348;6.596;2023-05-07T08:53:57;3.10;;;1.73;;
28774;SDS011;15926;51.348;6.596;2023-05-07T08:56:23;2.67;;;1.88;;
28774;SDS011;15926;51.348;6.596;2023-05-07T08:58:50;2.67;;;1.80;;
28774;SDS011;15926;51.348;6.596;2023-05-07T09:01:16;2.60;;;1.77;;
28774;SDS011;15926;51.348;6.596;2023-05-07T09:03:45;2.50;;;1.40;;
28774;SDS011;15926;51.348;6.596;2023-05-07T09:08:37;1.85;;;1.48;;
28774;SDS011;15926;51.348;6.596;2023-05-07T09:11:03;1.90;;;1.80;;
28774;SDS011;15926;51.348;6.596;2023-05-07T09:13:29;4.57;;;1.80;;
28774;SDS011;15926;51.348;6.596;2023-05-07T09:15:55;1.95;;;1.48;;
28774;SDS011;15926;51.348;6.596;2023-05-07T09:18:23;1.60;;;1.23;;
28774;SDS011;15926;51.348;6.596;2023-05-07T09:20:50;2.03;;;1.33;;
28774;SDS011;15926;51.348;6.596;2023-05-07T09:23:16;1.45;;;1.00;;
28774;SDS011;15926;51.348;6.596;2023-05-07T09:25:42;1.15;;;1.05;;
28774;SDS011;15926;51.348;6.596;2023-05-07T09:28:08;1.77;;;1.15;;
28774;SDS011;15926;51.348;6.596;2023-05-07T09:30:35;3.08;;;1.05;;
28774;SDS011;15926;51.348;6.596;2023-05-07T09:33:02;1.83;;;1.10;;
28774;SDS011;15926;51.348;6.596;2023-05-07T09:35:29;2.13;;;1.60;;
28774;SDS011;15926;51.348;6.596;2023-05-07T09:37:57;1.90;;;1.40;;
28774;SDS011;15926;51.348;6.596;2023-05-07T09:40:24;2.22;;;1.38;;
28774;SDS011;15926;51.348;6.596;2023-05-07T09:42:50;1.60;;;1.50;;
28774;SDS011;15926;51.348;6.596;2023-05-07T09:45:26;3.13;;;1.33;;
28774;SDS011;15926;51.348;6.596;2023-05-07T09:47:56;1.33;;;1.20;;
28774;SDS011;15926;51.348;6.596;2023-05-07T09:50:26;4.65;;;1.25;;
28774;SDS011;15926;51.348;6.596;2023-05-07T09:52:54;1.02;;;1.02;;
28774;SDS011;15926;51.348;6.596;2023-05-07T09:55:20;2.60;;;1.33;;
28774;SDS011;15926;51.348;6.596;2023-05-07T09:57:47;1.13;;;1.02;;
28774;SDS011;15926;51.348;6.596;2023-05-07T10:00:14;1.70;;;1.35;;
28774;SDS011;15926;51.348;6.596;2023-05-07T10:02:40;3.25;;;1.35;;
28774;SDS011;15926;51.348;6.596;2023-05-07T10:05:12;2.28;;;1.10;;
28774;SDS011;15926;51.348;6.596;2023-05-07T10:07:38;2.60;;;1.40;;
28774;SDS011;15926;51.348;6.596;2023-05-07T10:10:04;1.60;;;1.08;;
28774;SDS011;15926;51.348;6.596;2023-05-07T10:12:30;3.17;;;1.20;;
28774;SDS011;15926;51.348;6.596;2023-05-07T10:15:02;1.27;;;1.08;;
28774;SDS011;15926;51.348;6.596;2023-05-07T10:17:29;4.30;;;1.80;;
28774;SDS011;15926;51.348;6.596;2023-05-07T10:19:55;2.65;;;1.15;;
28774;SDS011;15926;51.348;6.596;2023-05-07T10:22:21;11.40;;;1.50;;
28774;SDS011;15926;51.348;6.596;2023-05-07T10:24:48;2.05;;;0.80;;
28774;SDS011;15926;51.348;6.596;2023-05-07T10:27:14;1.48;;;0.80;;
28774;SDS011;15926;51.348;6.596;2023-05-07T10:32:39;2.15;;;0.65;;
28774;SDS011;15926;51.348;6.596;2023-05-07T10:35:10;1.08;;;0.70;;
28774;SDS011;15926;51.348;6.596;2023-05-07T10:37:37;0.88;;;0.73;;
28774;SDS011;15926;51.348;6.596;2023-05-07T10:40:04;1.13;;;0.93;;
28774;SDS011;15926;51.348;6.596;2023-05-07T10:42:32;1.10;;;0.80;;
28774;SDS011;15926;51.348;6.596;2023-05-07T10:45:16;3.30;;;0.85;;
28774;SDS011;15926;51.348;6.596;2023-05-07T10:50:27;0.70;;;0.70;;
28774;SDS011;15926;51.348;6.596;2023-05-07T10:55:38;0.70;;;0.70;;
28774;SDS011;15926;51.348;6.596;2023-05-07T11:00:50;1.95;;;0.73;;
28774;SDS011;15926;51.348;6.596;2023-05-07T11:03:17;1.13;;;0.68;;
28774;SDS011;15926;51.348;6.596;2023-05-07T11:05:43;1.10;;;0.80;;
28774;SDS011;15926;51.348;6.596;2023-05-07T11:08:10;2.47;;;0.60;;
28774;SDS011;15926;51.348;6.596;2023-05-07T11:10:47;1.48;;;0.80;;
28774;SDS011;15926;51.348;6.596;2023-05-07T11:13:14;0.93;;;0.80;;
28774;SDS011;15926;51.348;6.596;2023-05-07T11:15:49;2.60;;;0.77;;
28774;SDS011;15926;51.348;6.596;2023-05-07T11:18:16;1.20;;;0.70;;
28774;SDS011;15926;51.348;6.596;2023-05-07T11:26:03;3.20;;;0.80;;
28774;SDS011;15926;51.348;6.596;2023-05-07T11:28:30;0.98;;;0.82;;
28774;SDS011;15926;51.348;6.596;2023-05-07T11:30:57;1.88;;;0.93;;
28774;SDS011;15926;51.348;6.596;2023-05-07T11:33:23;0.98;;;0.80;;
28774;SDS011;15926;51.348;6.596;2023-05-07T11:35:55;2.90;;;0.88;;
28774;SDS011;15926;51.348;6.596;2023-05-07T11:38:21;2.25;;;1.00;;
28774;SDS011;15926;51.348;6.596;2023-05-07T11:40:57;0.82;;;0.73;;
28774;SDS011;15926;51.348;6.596;2023-05-07T11:43:25;1.75;;;0.82;;
28774;SDS011;15926;51.348;6.596;2023-05-07T11:45:51;1.10;;;0.80;;
28774;SDS011;15926;51.348;6.596;2023-05-07T11:48:17;1.00;;;0.70;;
28774;SDS011;15926;51.348;6.596;2023-05-07T11:50:50;1.15;;;0.70;;
28774;SDS011;15926;51.348;6.596;2023-05-07T11:53:17;0.98;;;0.88;;
28774;SDS011;15926;51.348;6.596;2023-05-07T11:55:44;1.80;;;0.77;;
28774;SDS011;15926;51.348;6.596;2023-05-07T11:58:11;1.17;;;0.70;;
28774;SDS011;15926;51.348;6.596;2023-05-07T12:00:38;2.13;;;1.27;;
28774;SDS011;15926;51.348;6.596;2023-05-07T12:03:04;2.03;;;0.98;;
28774;SDS011;15926;51.348;6.596;2023-05-07T12:05:31;1.08;;;0.80;;
28774;SDS011;15926;51.348;6.596;2023-05-07T12:07:57;2.38;;;0.93;;
28774;SDS011;15926;51.348;6.596;2023-05-07T12:10:23;3.03;;;0.68;;
28774;SDS011;15926;51.348;6.596;2023-05-07T12:12:50;2.03;;;0.65;;
28774;SDS011;15926;51.348;6.596;2023-05-07T12:15:16;2.20;;;0.80;;
28774;SDS011;15926;51.348;6.596;2023-05-07T12:17:42;3.80;;;0.80;;
28774;SDS011;15926;51.348;6.596;2023-05-07T12:20:08;2.05;;;1.10;;
28774;SDS011;15926;51.348;6.596;2023-05-07T12:22:35;2.33;;;1.02;;
28774;SDS011;15926;51.348;6.596;2023-05-07T12:25:01;7.18;;;6.47;;
28774;SDS011;15926;51.348;6.596;2023-05-07T12:27:28;2.35;;;2.15;;
28774;SDS011;15926;51.348;6.596;2023-05-07T12:29:54;3.42;;;1.48;;
28774;SDS011;15926;51.348;6.596;2023-05-07T12:32:21;2.35;;;1.38;;
28774;SDS011;15926;51.348;6.596;2023-05-07T12:34:50;1.38;;;1.15;;
28774;SDS011;15926;51.348;6.596;2023-05-07T12:37:17;3.13;;;1.08;;
28774;SDS011;15926;51.348;6.596;2023-05-07T12:40:03;2.30;;;1.10;;
28774;SDS011;15926;51.348;6.596;2023-05-07T12:42:32;2.55;;;1.00;;
28774;SDS011;15926;51.348;6.596;2023-05-07T12:45:01;3.13;;;1.38;;
28774;SDS011;15926;51.348;6.596;2023-05-07T12:47:35;5.18;;;1.40;;
28774;SDS011;15926;51.348;6.596;2023-05-07T12:50:02;3.15;;;1.10;;
28774;SDS011;15926;51.348;6.596;2023-05-07T12:52:31;3.30;;;1.02;;
28774;SDS011;15926;51.348;6.596;2023-05-07T12:54:57;0.98;;;0.90;;
28774;SDS011;15926;51.348;6.596;2023-05-07T12:57:30;0.98;;;0.68;;
28774;SDS011;15926;51.348;6.596;2023-05-07T12:59:57;2.13;;;0.90;;
28774;SDS011;15926;51.348;6.596;2023-05-07T13:02:31;2.08;;;1.13;;
28774;SDS011;15926;51.348;6.596;2023-05-07T13:04:58;1.00;;;0.80;;
28774;SDS011;15926;51.348;6.596;2023-05-07T13:07:24;2.45;;;1.20;;
28774;SDS011;15926;51.348;6.596;2023-05-07T13:09:50;1.92;;;1.50;;
28774;SDS011;15926;51.348;6.596;2023-05-07T13:12:16;1.48;;;1.10;;
28774;SDS011;15926;51.348;6.596;2023-05-07T13:14:42;1.92;;;1.10;;
28774;SDS011;15926;51.348;6.596;2023-05-07T13:17:08;1.73;;;1.58;;
28774;SDS011;15926;51.348;6.596;2023-05-07T13:19:34;1.42;;;1.10;;
28774;SDS011;15926;51.348;6.596;2023-05-07T13:22:02;3.60;;;1.50;;
28774;SDS011;15926;51.348;6.596;2023-05-07T13:24:28;5.35;;;1.50;;
28774;SDS011;15926;51.348;6.596;2023-05-07T13:26:54;2.10;;;1.33;;
28774;SDS011;15926;51.348;6.596;2023-05-07T13:29:20;2.55;;;1.60;;
28774;SDS011;15926;51.348;6.596;2023-05-07T13:31:56;2.60;;;1.60;;
28774;SDS011;15926;51.348;6.596;2023-05-07T13:34:22;1.60;;;1.23;;
28774;SDS011;15926;51.348;6.596;2023-05-07T13:36:48;3.65;;;1.50;;
28774;SDS011;15926;51.348;6.596;2023-05-07T13:39:14;2.08;;;1.50;;
28774;SDS011;15926;51.348;6.596;2023-05-07T13:41:40;1.92;;;1.73;;
28774;SDS011;15926;51.348;6.596;2023-05-07T13:44:06;3.40;;;1.85;;
28774;SDS011;15926;51.348;6.596;2023-05-07T13:46:32;3.53;;;1.85;;
28774;SDS011;15926;51.348;6.596;2023-05-07T13:48:58;3.22;;;2.38;;
28774;SDS011;15926;51.348;6.596;2023-05-07T13:51:24;2.47;;;1.98;;
28774;SDS011;15926;51.348;6.596;2023-05-07T13:53:50;2.13;;;1.90;;
28774;SDS011;15926;51.348;6.596;2023-05-07T13:56:17;1.70;;;1.60;;
28774;SDS011;15926;51.348;6.596;2023-05-07T13:58:45;2.00;;;1.77;;
28774;SDS011;15926;51.348;6.596;2023-05-07T14:01:11;3.60;;;1.75;;
28774;SDS011;15926;51.348;6.596;2023-05-07T14:03:37;2.42;;;1.83;;
28774;SDS011;15926;51.348;6.596;2023-05-07T14:06:04;1.90;;;1.80;;
28774;SDS011;15926;51.348;6.596;2023-05-07T14:08:30;4.20;;;1.90;;
28774;SDS011;15926;51.348;6.596;2023-05-07T14:10:56;3.28;;;2.28;;
28774;SDS011;15926;51.348;6.596;2023-05-07T14:13:22;2.60;;;2.40;;
28774;SDS011;15926;51.348;6.596;2023-05-07T14:15:48;5.03;;;3.22;;
28774;SDS011;15926;51.348;6.596;2023-05-07T14:18:15;5.47;;;3.22;;
28774;SDS011;15926;51.348;6.596;2023-05-07T14:20:41;2.95;;;2.75;;
28774;SDS011;15926;51.348;6.596;2023-05-07T14:23:11;4.13;;;2.85;;
28774;SDS011;15926;51.348;6.596;2023-05-07T14:25:37;2.97;;;2.50;;
28774;SDS011;15926;51.348;6.596;2023-05-07T14:28:03;3.45;;;2.42;;
28774;SDS011;15926;51.348;6.596;2023-05-07T14:30:30;2.55;;;2.33;;
28774;SDS011;15926;51.348;6.596;2023-05-07T14:32:56;3.28;;;2.97;;
28774;SDS011;15926;51.348;6.596;2023-05-07T14:35:22;2.90;;;2.65;;
28774;SDS011;15926;51.348;6.596;2023-05-07T14:37:48;5.00;;;2.90;;
28774;SDS011;15926;51.348;6.596;2023-05-07T14:40:14;4.50;;;2.80;;
28774;SDS011;15926;51.348;6.596;2023-05-07T14:42:40;4.20;;;2.90;;
28774;SDS011;15926;51.348;6.596;2023-05-07T14:45:06;2.88;;;2.53;;
28774;SDS011;15926;51.348;6.596;2023-05-07T14:47:32;3.53;;;3.22;;
28774;SDS011;15926;51.348;6.596;2023-05-07T14:49:58;3.83;;;3.53;;
28774;SDS011;15926;51.348;6.596;2023-05-07T14:52:25;7.22;;;4.10;;
28774;SDS011;15926;51.348;6.596;2023-05-07T14:54:51;5.25;;;3.70;;
28774;SDS011;15926;51.348;6.596;2023-05-07T14:57:17;6.47;;;3.53;;
28774;SDS011;15926;51.348;6.596;2023-05-07T14:59:44;8.85;;;4.03;;
28774;SDS011;15926;51.348;6.596;2023-05-07T15:02:11;4.45;;;4.05;;